Time;durP1;ratioP1;P1;durP2;ratioP2;P2;SDS_P1;SDS_P2;PMS_P1;PMS_P2;Temp;Humidity;BMP_temperature;BMP_pressure;BME280_temperature;BME280_humidity;BME280_pressure;Samples;Min_cycle;Max_cycle;Signal;HPM_P1;HPM_P2
2023/05/08 00:01:30;;;;;;;25.50;17.88;;;;;;;14.78;100.00;101894.66;5123700;27;20054;-72
2023/05/08 00:03:57;;;;;;;19.98;15.98;;;;;;;14.78;100.00;101895.56;5121725;27;20035;-71
2023/05/08 00:06:26;;;;;;;21.98;16.20;;;;;;;14.75;100.00;101888.53;5118556;27;20040;-72
2023/05/08 00:08:54;;;;;;;21.85;16.50;;;;;;;14.77;100.00;101895.59;5109446;27;20048;-71
2023/05/08 00:11:21;;;;;;;23.23;16.98;;;;;;;14.75;100.00;101883.22;5124057;27;20586;-71
2023/05/08 00:13:48;;;;;;;21.77;16.83;;;;;;;14.77;100.00;101891.16;5120735;27;20447;-71
2023/05/08 00:16:15;;;;;;;25.10;18.65;;;;;;;14.77;100.00;101883.19;5123452;27;20031;-71
2023/05/08 00:18:43;;;;;;;27.00;18.73;;;;;;;14.76;100.00;101886.78;5125185;27;20152;-71
2023/05/08 00:21:10;;;;;;;26.58;18.67;;;;;;;14.74;100.00;101883.28;5106524;27;20594;-71
2023/05/08 00:23:37;;;;;;;27.05;19.13;;;;;;;14.74;100.00;101883.28;5113488;27;20039;-71
2023/05/08 00:26:04;;;;;;;25.15;19.25;;;;;;;14.73;100.00;101882.44;5105216;27;20036;-71
2023/05/08 00:28:31;;;;;;;27.70;20.27;;;;;;;14.73;100.00;101887.75;5129701;27;20043;-71
2023/05/08 00:31:00;;;;;;;24.98;18.95;;;;;;;14.73;100.00;101886.84;5106680;27;20094;-71
2023/05/08 00:33:28;;;;;;;26.70;19.10;;;;;;;14.71;100.00;101883.38;5114722;27;20056;-70
2023/05/08 00:36:03;;;;;;;27.30;19.88;;;;;;;14.71;100.00;101889.56;5109776;27;20033;-70
2023/05/08 00:38:35;;;;;;;24.13;19.35;;;;;;;14.70;100.00;101884.31;5116561;27;20535;-71
2023/05/08 00:41:03;;;;;;;29.15;20.05;;;;;;;14.70;100.00;101889.63;5137998;27;20407;-71
2023/05/08 00:43:30;;;;;;;29.02;21.10;;;;;;;14.66;100.00;101894.09;5133461;27;20035;-71
2023/05/08 00:46:00;;;;;;;29.27;21.05;;;;;;;14.68;100.00;101888.78;5130710;27;20557;-71
2023/05/08 00:48:33;;;;;;;30.67;20.13;;;;;;;14.66;100.00;101893.25;5146090;27;20044;-71
2023/05/08 00:51:05;;;;;;;29.00;21.05;;;;;;;14.66;100.00;101899.41;5128070;27;20044;-71
2023/05/08 00:53:37;;;;;;;26.63;20.50;;;;;;;14.64;100.00;101884.44;5130437;27;20047;-71
2023/05/08 00:56:12;;;;;;;27.75;20.02;;;;;;;14.64;100.00;101885.34;5128947;27;20118;-71
2023/05/08 00:58:42;;;;;;;27.83;19.70;;;;;;;14.62;100.00;101888.94;5128457;27;20036;-71
2023/05/08 01:01:10;;;;;;;28.13;20.73;;;;;;;14.63;100.00;101888.91;5128475;27;20420;-71
2023/05/08 01:03:37;;;;;;;27.25;20.13;;;;;;;14.60;100.00;101887.19;5145737;27;20122;-71
2023/05/08 01:06:05;;;;;;;28.85;21.02;;;;;;;14.60;100.00;101884.53;5121184;27;20035;-71
2023/05/08 01:08:33;;;;;;;25.02;19.83;;;;;;;14.57;100.00;101884.66;5145851;27;20044;-71
2023/05/08 01:11:18;;;;;;;28.02;21.65;;;;;;;14.58;100.00;101877.53;5141023;27;20040;-71
2023/05/08 01:13:51;;;;;;;29.63;20.80;;;;;;;14.54;100.00;101883.88;5108815;27;20032;-71
2023/05/08 01:16:34;;;;;;;28.23;19.98;;;;;;;14.45;100.00;101882.38;5114912;27;20635;-71
2023/05/08 01:19:21;;;;;;;29.50;21.15;;;;;;;14.40;100.00;101884.28;5103960;27;20518;-73
2023/05/08 01:21:59;;;;;;;29.67;20.27;;;;;;;14.33;100.00;101883.63;5121587;27;20536;-73
2023/05/08 01:25:19;;;;;;;28.20;20.75;;;;;;;14.28;100.00;101877.56;5108822;27;20411;-73
2023/05/08 01:28:20;;;;;;;31.17;21.50;;;;;;;14.20;100.00;101872.47;5136646;27;20538;-73
2023/05/08 01:31:13;;;;;;;29.70;21.48;;;;;;;14.13;100.00;101878.88;5138669;27;20072;-71
2023/05/08 01:34:07;;;;;;;29.70;22.25;;;;;;;14.08;100.00;101878.16;5143854;27;20048;-71
2023/05/08 01:37:07;;;;;;;28.40;20.67;;;;;;;14.04;100.00;101893.25;5123340;27;20043;-71
2023/05/08 01:40:06;;;;;;;33.38;21.95;;;;;;;14.01;100.00;101890.72;5116910;27;20508;-71
2023/05/08 01:42:49;;;;;;;35.70;23.75;;;;;;;14.01;100.00;101884.50;5108334;27;20048;-71
2023/05/08 01:45:25;;;;;;;34.42;22.98;;;;;;;14.00;100.00;101894.25;5115766;27;20091;-71
2023/05/08 01:48:10;;;;;;;34.90;23.50;;;;;;;13.99;100.00;101897.81;5107281;27;20496;-71
2023/05/08 01:50:51;;;;;;;33.95;23.52;;;;;;;13.98;100.00;101896.09;5110219;27;20044;-71
2023/05/08 01:53:42;;;;;;;35.80;24.35;;;;;;;13.97;100.00;101894.34;5121117;27;20534;-71
2023/05/08 01:56:15;;;;;;;38.50;23.88;;;;;;;13.95;100.00;101891.75;5141396;27;20170;-71
2023/05/08 01:58:45;;;;;;;35.28;23.48;;;;;;;13.93;100.00;101898.88;5114333;27;20071;-71
2023/05/08 02:01:17;;;;;;;41.05;24.67;;;;;;;13.92;100.00;101897.13;5115442;27;20055;-71
2023/05/08 02:03:47;;;;;;;34.53;23.50;;;;;;;13.94;100.00;101905.03;5126040;27;20503;-72
2023/05/08 02:06:18;;;;;;;34.53;24.23;;;;;;;13.95;100.00;101909.41;5108170;27;20043;-72
2023/05/08 02:08:47;;;;;;;33.38;24.25;;;;;;;13.91;100.00;101899.81;5122362;27;20121;-72
2023/05/08 02:11:19;;;;;;;38.20;23.45;;;;;;;13.85;100.00;101894.66;5122883;27;20043;-72
2023/05/08 02:13:48;;;;;;;35.17;23.60;;;;;;;13.81;100.00;101896.53;5103141;27;20055;-72
2023/05/08 02:16:18;;;;;;;35.75;24.10;;;;;;;13.81;100.00;101900.09;5106310;27;20109;-72
2023/05/08 02:18:51;;;;;;;35.17;23.65;;;;;;;13.80;100.00;101910.69;5106179;27;20043;-72
2023/05/08 02:21:21;;;;;;;34.10;24.58;;;;;;;13.76;100.00;101901.97;5106567;27;20118;-72
2023/05/08 02:23:51;;;;;;;34.92;22.90;;;;;;;13.74;100.00;101911.72;5125963;27;20035;-72
2023/05/08 02:26:21;;;;;;;35.55;24.52;;;;;;;13.73;100.00;101915.31;5110739;27;20043;-72
2023/05/08 02:28:52;;;;;;;33.35;23.85;;;;;;;13.72;100.00;101904.75;5109620;27;20040;-71
2023/05/08 02:31:20;;;;;;;32.28;22.25;;;;;;;13.71;100.00;101906.53;5109824;27;20042;-71
2023/05/08 02:33:49;;;;;;;36.40;24.30;;;;;;;13.73;100.00;101912.66;5131754;27;20178;-71
2023/05/08 02:36:21;;;;;;;35.42;24.27;;;;;;;13.72;100.00;101912.69;5153674;27;20100;-71
2023/05/08 02:38:53;;;;;;;34.60;23.55;;;;;;;13.70;100.00;101911.84;5126021;27;20075;-71
2023/05/08 02:41:24;;;;;;;36.23;26.53;;;;;;;13.69;100.00;101910.09;5120882;27;20956;-71
2023/05/08 02:43:52;;;;;;;38.33;25.42;;;;;;;13.65;100.00;101909.31;5119173;27;20049;-71
2023/05/08 02:46:57;;;;;;;37.85;24.75;;;;;;;13.64;100.00;101908.47;5119687;27;20112;-70
2023/05/08 02:50:12;;;;;;;35.35;24.08;;;;;;;13.58;100.00;101919.22;5106628;27;20089;-71
2023/05/08 02:53:02;;;;;;;37.95;24.55;;;;;;;13.54;100.00;101901.66;5108283;27;20040;-70
2023/05/08 02:55:48;;;;;;;36.15;24.85;;;;;;;13.54;100.00;101906.09;5125013;27;20096;-71
2023/05/08 02:58:29;;;;;;;39.38;25.27;;;;;;;13.55;100.00;101903.41;5142222;27;20044;-71
2023/05/08 03:01:06;;;;;;;37.55;25.02;;;;;;;13.55;100.00;101902.53;5139198;27;20048;-71
2023/05/08 03:03:44;;;;;;;37.72;24.75;;;;;;;13.53;100.00;101891.97;5129422;27;20463;-70
2023/05/08 03:06:18;;;;;;;38.95;25.08;;;;;;;13.53;100.00;101899.94;5131628;27;20039;-71
2023/05/08 03:08:47;;;;;;;37.42;25.17;;;;;;;13.51;100.00;101902.63;5123388;27;20070;-71
2023/05/08 03:11:21;;;;;;;35.03;23.85;;;;;;;13.52;100.00;101900.84;5121498;27;20043;-72
2023/05/08 03:13:57;;;;;;;38.13;24.30;;;;;;;13.51;100.00;101899.97;5124751;27;20123;-71
2023/05/08 03:16:33;;;;;;;36.15;25.70;;;;;;;13.51;100.00;101904.38;5110595;27;20600;-71
2023/05/08 03:19:09;;;;;;;41.25;27.10;;;;;;;13.49;100.00;101907.09;5113662;27;20036;-71
2023/05/08 03:21:39;;;;;;;39.58;25.77;;;;;;;13.49;100.00;101906.19;5105591;27;20044;-71
2023/05/08 03:24:09;;;;;;;41.17;26.95;;;;;;;13.49;100.00;101904.44;5123516;27;20058;-72
2023/05/08 03:26:37;;;;;;;37.05;25.73;;;;;;;13.48;100.00;101893.91;5123337;27;20074;-71
2023/05/08 03:29:05;;;;;;;39.45;25.88;;;;;;;13.50;100.00;101900.00;5112721;27;20063;-71
2023/05/08 03:31:35;;;;;;;44.38;26.08;;;;;;;13.49;100.00;101898.25;5128833;27;20134;-72
2023/05/08 03:34:03;;;;;;;38.08;26.60;;;;;;;13.49;100.00;101899.16;5117674;27;20051;-71
2023/05/08 03:36:31;;;;;;;38.88;24.92;;;;;;;13.49;100.00;101899.16;5109767;27;20043;-71
2023/05/08 03:38:59;;;;;;;40.17;25.65;;;;;;;13.49;100.00;101903.56;5112126;27;20040;-71
2023/05/08 03:41:26;;;;;;;42.35;27.58;;;;;;;13.46;100.00;101907.16;5122319;27;20085;-71
2023/05/08 03:43:55;;;;;;;42.78;27.88;;;;;;;13.46;100.00;101898.34;5115818;27;20032;-71
2023/05/08 03:46:24;;;;;;;37.38;25.52;;;;;;;13.47;100.00;101902.75;5122231;27;20040;-71
2023/05/08 03:48:53;;;;;;;40.45;26.15;;;;;;;13.45;100.00;101902.75;5128708;27;20040;-71
2023/05/08 03:51:21;;;;;;;41.83;26.67;;;;;;;13.47;100.00;101905.41;5123402;27;20526;-71
2023/05/08 03:53:48;;;;;;;46.00;26.92;;;;;;;13.46;100.00;101895.72;5124378;27;20044;-71
2023/05/08 03:56:17;;;;;;;37.25;26.48;;;;;;;13.47;100.00;101905.41;5157138;27;20036;-71
2023/05/08 03:59:05;;;;;;;37.53;25.35;;;;;;;13.46;100.00;101907.16;5144402;27;20040;-71
2023/05/08 04:01:39;;;;;;;38.95;27.58;;;;;;;13.46;100.00;101909.81;5141521;27;21245;-71
2023/05/08 04:04:31;;;;;;;36.55;25.75;;;;;;;13.44;100.00;101906.31;5108551;27;20036;-71
2023/05/08 04:07:05;;;;;;;41.72;27.70;;;;;;;13.42;100.00;101901.97;5109529;27;20522;-71
2023/05/08 04:10:08;;;;;;;42.42;28.13;;;;;;;13.40;100.00;101898.50;5125431;27;20036;-71
2023/05/08 04:13:06;;;;;;;41.10;27.00;;;;;;;13.36;100.00;101900.31;5144974;27;20074;-71
2023/05/08 04:16:12;;;;;;;38.05;26.05;;;;;;;13.34;100.00;101903.03;5122484;27;20119;-71
2023/05/08 04:18:48;;;;;;;40.53;27.65;;;;;;;13.33;100.00;101892.44;5126040;27;20150;-71
2023/05/08 04:21:24;;;;;;;36.67;25.15;;;;;;;13.36;100.00;101893.25;5141483;27;20032;-71
2023/05/08 04:23:56;;;;;;;40.53;28.45;;;;;;;13.39;100.00;101897.63;5118993;27;20452;-71
2023/05/08 04:26:25;;;;;;;40.78;27.50;;;;;;;13.40;100.00;101895.84;5124351;27;20060;-71
2023/05/08 04:28:55;;;;;;;43.20;28.98;;;;;;;13.41;100.00;101898.47;5128681;27;20036;-71
2023/05/08 04:31:24;;;;;;;43.85;27.95;;;;;;;13.42;100.00;101897.56;5098124;27;20613;-71
2023/05/08 04:33:53;;;;;;;40.55;28.92;;;;;;;13.42;100.00;101901.97;5113629;27;20098;-72
2023/05/08 04:36:20;;;;;;;40.38;28.85;;;;;;;13.43;100.00;101901.94;5125450;27;20498;-72
2023/05/08 04:38:47;;;;;;;41.28;27.80;;;;;;;13.46;100.00;101908.94;5141671;27;20035;-72
2023/05/08 04:41:14;;;;;;;40.92;29.25;;;;;;;13.46;100.00;101907.16;5138467;27;20475;-71
2023/05/08 04:43:42;;;;;;;43.95;29.77;;;;;;;13.51;100.00;101912.34;5124992;27;20039;-72
2023/05/08 04:46:10;;;;;;;42.22;28.08;;;;;;;13.56;100.00;101915.75;5122976;27;20212;-76
2023/05/08 04:48:38;;;;;;;40.08;28.25;;;;;;;13.60;100.00;101917.41;5124746;27;20036;-71
2023/05/08 04:51:05;;;;;;;42.40;28.75;;;;;;;13.64;100.00;101921.72;5123310;27;20126;-71
2023/05/08 04:53:32;;;;;;;40.70;28.48;;;;;;;13.71;100.00;101925.09;5144994;27;20593;-72
2023/05/08 04:56:00;;;;;;;41.30;28.38;;;;;;;13.75;100.00;101928.53;5135517;27;20039;-72
2023/05/08 04:58:28;;;;;;;38.45;26.77;;;;;;;13.78;100.00;101931.09;5123946;27;20040;-72
2023/05/08 05:01:00;;;;;;;36.65;26.20;;;;;;;13.80;100.00;101927.50;5122371;27;20125;-72
2023/05/08 05:03:27;;;;;;;37.00;25.60;;;;;;;13.84;100.00;101922.13;5128438;27;20122;-72
2023/05/08 05:05:59;;;;;;;32.15;24.95;;;;;;;13.88;100.00;101922.00;5128800;27;20036;-72
2023/05/08 05:08:26;;;;;;;35.67;26.25;;;;;;;13.90;100.00;101930.75;5145952;27;20036;-75
2023/05/08 05:10:55;;;;;;;36.28;27.08;;;;;;;13.94;100.00;101940.38;5142121;27;20536;-72
2023/05/08 05:13:22;;;;;;;35.13;26.17;;;;;;;13.98;100.00;101942.03;5120665;27;20039;-72
2023/05/08 05:15:53;;;;;;;33.83;25.58;;;;;;;14.04;100.00;101937.47;5109129;27;20146;-70
2023/05/08 05:18:21;;;;;;;34.00;26.02;;;;;;;14.05;100.00;101940.06;5110904;27;20803;-69
2023/05/08 05:20:49;;;;;;;35.22;25.38;;;;;;;14.06;100.00;101949.75;5122856;27;20546;-70
2023/05/08 05:23:16;;;;;;;35.25;24.48;;;;;;;14.08;100.00;101941.78;5140999;27;20038;-70
2023/05/08 05:25:44;;;;;;;34.05;24.98;;;;;;;14.08;100.00;101941.78;5126537;27;20028;-69
2023/05/08 05:28:12;;;;;;;32.00;24.92;;;;;;;14.12;100.00;101948.72;5121523;27;20144;-70
2023/05/08 05:30:39;;;;;;;33.15;24.45;;;;;;;14.14;100.00;101941.59;5124145;27;20032;-70
2023/05/08 05:33:06;;;;;;;32.33;24.67;;;;;;;14.20;100.00;101946.72;5122812;27;20509;-70
2023/05/08 05:35:34;;;;;;;32.90;24.63;;;;;;;14.25;100.00;101952.78;5141347;27;21121;-69
2023/05/08 05:38:01;;;;;;;32.08;23.92;;;;;;;14.32;100.00;101945.53;5125770;27;20043;-69
2023/05/08 05:40:28;;;;;;;33.60;25.25;;;;;;;14.40;100.00;101955.91;5138588;27;20132;-70
2023/05/08 05:42:55;;;;;;;31.77;24.08;;;;;;;14.46;100.00;101958.38;5142526;27;20146;-69
2023/05/08 05:45:22;;;;;;;34.78;25.08;;;;;;;14.49;100.00;101942.41;5121452;27;20032;-69
2023/05/08 05:47:52;;;;;;;32.33;24.77;;;;;;;14.57;100.00;101960.72;5153063;27;20039;-70
2023/05/08 05:50:21;;;;;;;34.53;24.83;;;;;;;14.66;100.00;101962.25;5118776;27;20040;-70
2023/05/08 05:52:49;;;;;;;39.45;25.98;;;;;;;14.70;100.00;101959.47;5141089;27;20790;-70
2023/05/08 05:55:16;;;;;;;31.85;23.67;;;;;;;14.77;100.00;101961.94;5140206;27;21059;-69
2023/05/08 05:57:46;;;;;;;33.75;24.52;;;;;;;14.87;100.00;101966.06;5140072;27;20059;-73
2023/05/08 06:00:15;;;;;;;35.38;24.42;;;;;;;14.95;100.00;101964.06;5122012;27;20089;-70
2023/05/08 06:02:47;;;;;;;39.35;24.45;;;;;;;15.07;100.00;101966.31;5124543;27;20039;-70
2023/05/08 06:05:18;;;;;;;36.78;25.40;;;;;;;15.22;100.00;101972.06;5124640;27;20114;-71
2023/05/08 06:07:45;;;;;;;40.97;26.55;;;;;;;15.31;100.00;101971.78;5111274;27;20688;-71
2023/05/08 06:10:12;;;;;;;40.33;25.40;;;;;;;15.39;100.00;101976.84;5144898;27;20131;-71
2023/05/08 06:12:39;;;;;;;39.17;24.70;;;;;;;15.43;100.00;101974.94;5145166;27;20043;-70
2023/05/08 06:15:08;;;;;;;38.95;24.30;;;;;;;15.46;100.00;101975.72;5138478;27;20526;-70
2023/05/08 06:17:35;;;;;;;38.03;25.13;;;;;;;15.50;100.00;101976.47;5125052;27;20900;-70
2023/05/08 06:20:03;;;;;;;45.45;24.92;;;;;;;15.60;100.00;101980.56;5126893;27;20047;-71
2023/05/08 06:22:31;;;;;;;42.03;26.13;;;;;;;15.68;100.00;101978.50;5143717;27;20036;-70
2023/05/08 06:24:58;;;;;;;44.13;27.25;;;;;;;15.77;100.00;101972.03;5128262;27;20044;-71
2023/05/08 06:27:25;;;;;;;43.60;25.92;;;;;;;15.90;100.00;101976.97;5144287;27;20125;-70
2023/05/08 06:29:52;;;;;;;44.10;25.27;;;;;;;15.96;100.00;101987.38;5125565;27;20043;-70
2023/05/08 06:32:20;;;;;;;45.45;27.30;;;;;;;16.03;100.00;101980.06;5118862;27;20039;-70
2023/05/08 06:34:48;;;;;;;45.38;27.40;;;;;;;16.12;100.00;101983.28;5144121;27;20925;-71
2023/05/08 06:37:15;;;;;;;44.60;26.50;;;;;;;16.20;100.00;101984.78;5127185;27;20906;-71
2023/05/08 06:39:42;;;;;;;39.25;25.73;;;;;;;16.25;100.00;101983.69;5128551;27;20039;-70
2023/05/08 06:42:09;;;;;;;42.33;25.58;;;;;;;16.26;100.00;101973.91;5127991;27;20518;-71
2023/05/08 06:44:39;;;;;;;39.53;26.17;;;;;;;16.28;100.00;101980.06;5127807;27;20136;-71
2023/05/08 06:47:07;;;;;;;42.10;26.08;;;;;;;16.28;100.00;101974.72;5126860;27;20050;-71
2023/05/08 06:49:37;;;;;;;44.55;27.65;;;;;;;16.34;100.00;101977.16;5144128;27;20043;-71
2023/05/08 06:52:04;;;;;;;42.08;27.75;;;;;;;16.44;100.00;101973.22;5127389;27;20119;-70
2023/05/08 06:54:31;;;;;;;45.55;28.05;;;;;;;16.55;100.00;101982.59;5142844;27;20071;-70
2023/05/08 06:56:58;;;;;;;45.15;26.55;;;;;;;16.65;100.00;101980.47;5126990;27;20090;-71
2023/05/08 06:59:25;;;;;;;41.15;27.58;;;;;;;16.69;98.93;101977.63;5135833;27;20450;-71
2023/05/08 07:01:52;;;;;;;45.22;27.15;;;;;;;16.75;99.39;101980.06;5125436;27;20524;-70
2023/05/08 07:04:19;;;;;;;39.83;26.52;;;;;;;16.95;100.00;101989.09;5126513;27;20166;-71
2023/05/08 07:06:46;;;;;;;50.38;28.08;;;;;;;17.19;100.00;101983.75;5125236;27;20100;-71
2023/05/08 07:09:15;;;;;;;39.97;27.63;;;;;;;17.41;99.94;101983.72;5126514;27;20525;-71
2023/05/08 07:11:42;;;;;;;46.55;28.13;;;;;;;17.63;99.83;101989.06;5127411;27;20040;-71
2023/05/08 07:14:09;;;;;;;43.22;27.33;;;;;;;17.87;99.33;101988.94;5125550;27;20036;-70
2023/05/08 07:16:36;;;;;;;38.80;26.85;;;;;;;18.06;98.61;101991.72;5125260;27;20059;-71
2023/05/08 07:19:04;;;;;;;41.63;29.60;;;;;;;18.22;98.15;101991.91;5126676;27;20046;-71
2023/05/08 07:21:31;;;;;;;45.63;28.98;;;;;;;18.35;97.87;101984.22;5126518;27;20040;-71
2023/05/08 07:23:58;;;;;;;47.38;29.88;;;;;;;18.46;97.73;101981.06;5124793;27;20123;-71
2023/05/08 07:26:25;;;;;;;40.80;29.08;;;;;;;18.60;97.01;101985.78;5126031;27;20038;-71
2023/05/08 07:28:53;;;;;;;44.67;29.77;;;;;;;18.68;96.15;101988.94;5126146;27;20051;-71
2023/05/08 07:31:21;;;;;;;42.35;28.15;;;;;;;18.75;94.87;101990.38;5125891;27;20040;-71
2023/05/08 07:33:48;;;;;;;45.22;28.30;;;;;;;18.75;92.91;101986.88;5141925;27;20055;-71
2023/05/08 07:36:15;;;;;;;42.80;28.63;;;;;;;18.71;92.39;101988.81;5127810;27;20031;-71
2023/05/08 07:38:42;;;;;;;42.22;30.02;;;;;;;18.70;93.19;101988.88;5114108;27;20119;-71
2023/05/08 07:41:09;;;;;;;45.17;30.83;;;;;;;18.72;93.54;101987.84;5120974;27;20040;-71
2023/05/08 07:43:36;;;;;;;43.22;29.75;;;;;;;18.76;92.71;101991.28;5105450;27;20125;-71
2023/05/08 07:46:04;;;;;;;47.97;30.33;;;;;;;18.84;93.87;101977.53;5122137;27;20044;-71
2023/05/08 07:48:31;;;;;;;49.00;30.23;;;;;;;18.91;93.79;101979.84;5122608;27;20078;-71
2023/05/08 07:50:58;;;;;;;56.88;29.48;;;;;;;19.03;94.46;101982.91;5122401;27;20032;-71
2023/05/08 07:53:26;;;;;;;47.30;29.65;;;;;;;19.11;94.08;101982.53;5131711;27;20071;-71
2023/05/08 07:55:53;;;;;;;42.50;29.17;;;;;;;19.18;92.53;101983.97;5088715;28;20492;-71
2023/05/08 07:58:20;;;;;;;48.78;31.98;;;;;;;19.29;91.98;101986.09;5139816;27;20108;-71
2023/05/08 08:00:50;;;;;;;45.50;30.73;;;;;;;19.36;90.20;101983.06;5139325;27;20071;-71
2023/05/08 08:03:17;;;;;;;45.42;30.92;;;;;;;19.34;90.77;101986.75;5088985;28;20036;-71
2023/05/08 08:05:44;;;;;;;50.67;31.65;;;;;;;19.36;90.85;101991.09;5107361;27;20040;-70
2023/05/08 08:08:11;;;;;;;42.55;30.55;;;;;;;19.36;90.41;101982.22;5138805;27;20044;-69
2023/05/08 08:10:38;;;;;;;53.58;31.77;;;;;;;19.40;90.92;101995.34;5121830;27;20655;-70
2023/05/08 08:13:05;;;;;;;43.78;30.77;;;;;;;19.39;90.99;101995.41;5106660;28;20785;-70
2023/05/08 08:15:32;;;;;;;50.55;31.83;;;;;;;19.34;90.27;102002.81;5107535;27;20113;-70
2023/05/08 08:18:00;;;;;;;40.00;30.23;;;;;;;19.26;88.12;102007.66;5110083;28;20044;-70
2023/05/08 08:20:27;;;;;;;43.30;31.83;;;;;;;19.07;86.10;102005.88;5110459;27;20527;-70
2023/05/08 08:22:54;;;;;;;53.58;32.88;;;;;;;18.92;88.35;102000.28;5150338;27;20043;-70
2023/05/08 08:25:21;;;;;;;44.65;31.20;;;;;;;18.86;89.05;102005.94;5130580;27;20043;-70
2023/05/08 08:27:48;;;;;;;49.42;32.83;;;;;;;18.74;87.80;102002.00;5130086;27;20729;-70
2023/05/08 08:30:15;;;;;;;45.53;31.65;;;;;;;18.62;87.93;102000.78;5129620;27;20043;-70
2023/05/08 08:32:45;;;;;;;46.70;31.98;;;;;;;18.55;88.92;101995.78;5146013;27;20039;-70
2023/05/08 08:35:13;;;;;;;49.38;33.38;;;;;;;18.46;89.15;101995.28;5123496;27;20047;-70
2023/05/08 08:37:40;;;;;;;52.00;31.60;;;;;;;18.45;90.37;101982.84;5130981;27;20036;-70
2023/05/08 08:40:08;;;;;;;50.58;31.83;;;;;;;18.54;91.20;101986.03;5145731;27;20040;-70
2023/05/08 08:42:35;;;;;;;50.80;31.13;;;;;;;18.63;91.72;101985.59;5119561;27;20110;-70
2023/05/08 08:45:03;;;;;;;42.15;30.48;;;;;;;18.71;91.04;101980.81;5127052;27;20511;-70
2023/05/08 08:47:36;;;;;;;41.22;29.92;;;;;;;18.77;91.34;101980.50;5128739;27;20414;-70
2023/05/08 08:50:06;;;;;;;41.10;28.53;;;;;;;18.80;90.82;101978.63;5130671;27;20040;-69
2023/05/08 08:53:06;;;;;;;38.63;28.52;;;;;;;18.87;91.57;101980.06;5130275;27;20287;-70
2023/05/08 08:55:39;;;;;;;40.00;28.55;;;;;;;18.90;91.74;101975.44;5124864;27;20039;-70
2023/05/08 08:58:20;;;;;;;48.42;29.20;;;;;;;18.96;91.95;101976.13;5128526;27;20031;-69
2023/05/08 09:00:49;;;;;;;43.85;28.48;;;;;;;19.06;91.32;101978.28;5130602;27;20690;-70
2023/05/08 09:03:16;;;;;;;40.20;29.08;;;;;;;19.17;91.55;101983.13;5124881;27;20047;-71
2023/05/08 09:05:44;;;;;;;40.67;29.45;;;;;;;19.28;90.68;101977.25;5126038;27;20066;-71
2023/05/08 09:08:11;;;;;;;41.17;29.85;;;;;;;19.36;89.38;101974.19;5127735;27;20503;-71
2023/05/08 09:10:39;;;;;;;40.05;29.17;;;;;;;19.42;87.26;101975.69;5129538;27;20039;-71
2023/05/08 09:13:06;;;;;;;38.45;28.33;;;;;;;19.63;86.63;101971.06;5130105;27;20036;-71
2023/05/08 09:15:34;;;;;;;43.97;28.77;;;;;;;19.87;87.33;101963.63;5123061;27;20047;-71
2023/05/08 09:18:01;;;;;;;45.95;29.95;;;;;;;20.15;86.97;101965.72;5121352;27;20110;-70
2023/05/08 09:20:29;;;;;;;44.08;28.95;;;;;;;20.42;86.52;101970.53;5143815;27;20042;-70
2023/05/08 09:23:01;;;;;;;37.15;28.42;;;;;;;20.60;84.18;101978.53;5119766;27;20101;-70
2023/05/08 09:25:46;;;;;;;44.58;29.40;;;;;;;20.72;81.54;101975.16;5127727;27;20050;-71
2023/05/08 09:28:22;;;;;;;41.75;28.40;;;;;;;20.90;80.27;101980.50;5122648;27;20047;-71
2023/05/08 09:30:57;;;;;;;39.28;27.40;;;;;;;21.01;78.98;101978.03;5126748;27;20239;-70
2023/05/08 09:33:27;;;;;;;41.80;27.70;;;;;;;21.08;78.96;101975.88;5108565;27;20047;-71
2023/05/08 09:35:56;;;;;;;38.72;28.70;;;;;;;21.05;79.70;101968.88;5128808;27;20476;-71
2023/05/08 09:38:37;;;;;;;40.42;28.08;;;;;;;21.10;81.44;101977.53;5150471;27;20044;-71
2023/05/08 09:41:15;;;;;;;37.08;27.75;;;;;;;21.12;81.13;101971.19;5149356;27;20070;-70
2023/05/08 09:43:58;;;;;;;36.03;28.40;;;;;;;21.17;79.72;101980.72;5144181;27;20039;-70
2023/05/08 09:46:26;;;;;;;51.53;29.70;;;;;;;21.42;80.89;101979.31;5127814;27;20819;-70
2023/05/08 09:49:00;;;;;;;39.83;28.65;;;;;;;21.47;78.34;101977.19;5127548;27;20054;-70
2023/05/08 09:51:29;;;;;;;;;;;;;;;21.31;77.63;101982.63;5125300;27;20040;-70
2023/05/08 09:53:58;;;;;;;40.45;27.60;;;;;;;21.18;78.92;101984.28;5107760;27;19930;-70
2023/05/08 09:56:38;;;;;;;37.90;28.58;;;;;;;21.23;78.73;101990.22;5123070;27;20564;-70
2023/05/08 09:59:27;;;;;;;35.17;27.63;;;;;;;21.43;78.39;101983.72;5118859;27;20036;-70
2023/05/08 10:01:56;;;;;;;37.25;26.88;;;;;;;21.71;77.69;101984.78;5125596;27;20184;-70
2023/05/08 10:04:35;;;;;;;35.08;27.23;;;;;;;21.93;76.55;101987.03;5127993;27;20051;-70
2023/05/08 10:07:03;;;;;;;37.30;28.08;;;;;;;22.24;75.66;101979.81;5129597;27;20040;-70
2023/05/08 10:09:30;;;;;;;36.63;28.13;;;;;;;22.56;72.88;101984.16;5129759;27;20032;-70
2023/05/08 10:12:15;;;;;;;42.78;29.65;;;;;;;22.77;71.05;101981.91;5128678;27;20046;-70
2023/05/08 10:14:43;;;;;;;44.95;30.42;;;;;;;22.89;73.08;101980.28;5144804;27;20542;-70
2023/05/08 10:17:23;;;;;;;39.83;27.48;;;;;;;23.09;69.51;101970.91;5142559;27;20582;-70
2023/05/08 10:20:01;;;;;;;34.35;24.20;;;;;;;23.20;71.21;101971.09;5128881;27;20036;-70
2023/05/08 10:22:33;;;;;;;32.65;24.75;;;;;;;23.33;69.57;101972.97;5128879;27;20046;-70
2023/05/08 10:25:02;;;;;;;33.47;25.75;;;;;;;23.44;69.82;101974.94;5128900;27;20451;-70
2023/05/08 10:28:01;;;;;;;37.80;26.63;;;;;;;23.40;68.98;101971.59;5128482;27;20043;-70
2023/05/08 10:30:30;;;;;;;50.83;27.77;;;;;;;23.10;70.46;101975.31;5122205;27;20047;-70
2023/05/08 10:33:08;;;;;;;34.03;25.35;;;;;;;22.92;70.13;101977.38;5132969;27;20071;-70
2023/05/08 10:35:39;;;;;;;50.60;27.48;;;;;;;22.77;70.84;101972.06;5122471;27;20052;-70
2023/05/08 10:38:08;;;;;;;42.65;27.50;;;;;;;22.65;72.68;101976.38;5126606;27;20038;-70
2023/05/08 10:40:37;;;;;;;31.17;26.42;;;;;;;22.51;71.70;101975.50;5126186;27;20071;-70
2023/05/08 10:43:06;;;;;;;38.92;26.17;;;;;;;22.28;72.23;101964.38;5110807;27;20119;-70
2023/05/08 10:45:35;;;;;;;33.42;26.45;;;;;;;22.01;72.47;101963.31;5132968;27;20186;-70
2023/05/08 10:48:26;;;;;;;34.60;27.48;;;;;;;21.78;73.42;101961.16;5119764;27;20138;-70
2023/05/08 10:51:22;;;;;;;35.90;30.08;;;;;;;21.52;73.46;101960.84;5127690;27;20040;-70
2023/05/08 10:54:04;;;;;;;40.42;32.38;;;;;;;21.31;76.02;101960.28;5140991;27;20042;-70
2023/05/08 10:56:31;;;;;;;40.58;32.70;;;;;;;21.21;76.45;101960.81;5106866;27;20464;-70
2023/05/08 10:58:58;;;;;;;41.33;32.78;;;;;;;21.17;77.31;101963.78;5116403;27;20513;-70
2023/05/08 11:01:26;;;;;;;39.80;31.77;;;;;;;21.14;78.60;101972.88;5123693;27;20048;-70
2023/05/08 11:03:54;;;;;;;38.08;30.73;;;;;;;21.07;78.50;101968.78;5125414;27;20035;-70
2023/05/08 11:06:47;;;;;;;43.70;31.67;;;;;;;20.97;77.61;101972.94;5127144;27;20531;-70
2023/05/08 11:09:22;;;;;;;43.13;32.53;;;;;;;20.84;78.50;101972.78;5106496;27;20044;-70
2023/05/08 11:12:15;;;;;;;41.30;33.28;;;;;;;20.73;77.51;101971.53;5121552;27;20504;-71
2023/05/08 11:14:53;;;;;;;45.72;34.70;;;;;;;20.51;78.02;101965.63;5118398;27;20039;-72
2023/05/08 11:17:25;;;;;;;46.65;34.88;;;;;;;20.27;78.56;101966.00;5129398;27;20040;-73
2023/05/08 11:20:04;;;;;;;45.95;36.08;;;;;;;20.02;79.60;101973.53;5127225;27;20046;-72
2023/05/08 11:22:32;;;;;;;52.22;37.20;;;;;;;19.89;80.56;101963.56;5127938;27;20054;-71
2023/05/08 11:25:09;;;;;;;53.50;38.80;;;;;;;19.85;81.77;101965.47;5126559;27;20904;-71
2023/05/08 11:27:45;;;;;;;53.10;38.10;;;;;;;19.75;81.79;101958.88;5154278;27;20090;-77